sensor_id;sensor_type;location;lat;lon;timestamp;pressure;altitude;pressure_sealevel;temperature;humidity
69535;BME280;56754;51.568;5.048;2023-02-11T00:01:33;103419.28;;;11.94;58.92
69535;BME280;56754;51.568;5.048;2023-02-11T00:04:00;103410.97;;;11.90;58.84
69535;BME280;56754;51.568;5.048;2023-02-11T00:06:27;103404.25;;;11.88;59.05
69535;BME280;56754;51.568;5.048;2023-02-11T00:08:53;103402.63;;;11.87;59.50
69535;BME280;56754;51.568;5.048;2023-02-11T00:11:20;103403.91;;;11.84;59.38
69535;BME280;56754;51.568;5.048;2023-02-11T00:13:47;103408.22;;;11.85;59.88
69535;BME280;56754;51.568;5.048;2023-02-11T00:16:18;103404.16;;;11.82;59.24
69535;BME280;56754;51.568;5.048;2023-02-11T00:18:44;103397.13;;;11.76;59.29
69535;BME280;56754;51.568;5.048;2023-02-11T00:21:12;103395.75;;;11.74;60.03
69535;BME280;56754;51.568;5.048;2023-02-11T00:23:38;103397.63;;;11.73;60.30
69535;BME280;56754;51.568;5.048;2023-02-11T00:26:11;103402.47;;;11.71;59.12
69535;BME280;56754;51.568;5.048;2023-02-11T00:28:36;103388.75;;;11.68;60.20
69535;BME280;56754;51.568;5.048;2023-02-11T00:31:02;103385.53;;;11.66;60.45
69535;BME280;56754;51.568;5.048;2023-02-11T00:33:27;103389.25;;;11.65;60.56
69535;BME280;56754;51.568;5.048;2023-02-11T00:35:52;103391.41;;;11.63;60.75
69535;BME280;56754;51.568;5.048;2023-02-11T00:38:17;103390.56;;;11.62;60.61
69535;BME280;56754;51.568;5.048;2023-02-11T00:40:43;103393.50;;;11.60;61.12
69535;BME280;56754;51.568;5.048;2023-02-11T00:43:08;103396.44;;;11.59;61.33
69535;BME280;56754;51.568;5.048;2023-02-11T00:45:33;103397.25;;;11.59;61.05
69535;BME280;56754;51.568;5.048;2023-02-11T00:47:59;103402.06;;;11.57;60.65
69535;BME280;56754;51.568;5.048;2023-02-11T00:50:24;103404.44;;;11.54;60.83
69535;BME280;56754;51.568;5.048;2023-02-11T00:52:49;103396.63;;;11.52;61.22
69535;BME280;56754;51.568;5.048;2023-02-11T00:55:15;103399.59;;;11.51;61.55
69535;BME280;56754;51.568;5.048;2023-02-11T00:57:40;103399.00;;;11.49;61.35
69535;BME280;56754;51.568;5.048;2023-02-11T01:00:07;103400.31;;;11.46;61.00
69535;BME280;56754;51.568;5.048;2023-02-11T01:02:33;103402.44;;;11.44;61.43
69535;BME280;56754;51.568;5.048;2023-02-11T01:04:59;103395.72;;;11.42;60.96
69535;BME280;56754;51.568;5.048;2023-02-11T01:07:25;103386.34;;;11.39;61.64
69535;BME280;56754;51.568;5.048;2023-02-11T01:09:50;103377.75;;;11.37;61.35
69535;BME280;56754;51.568;5.048;2023-02-11T01:12:15;103373.44;;;11.36;60.75
69535;BME280;56754;51.568;5.048;2023-02-11T01:14:41;103371.28;;;11.33;61.64
69535;BME280;56754;51.568;5.048;2023-02-11T01:17:06;103382.22;;;11.31;61.08
69535;BME280;56754;51.568;5.048;2023-02-11T01:19:32;103381.66;;;11.29;61.69
69535;BME280;56754;51.568;5.048;2023-02-11T01:21:57;103387.28;;;11.28;61.71
69535;BME280;56754;51.568;5.048;2023-02-11T01:24:22;103389.38;;;11.26;61.47
69535;BME280;56754;51.568;5.048;2023-02-11T01:26:48;103400.38;;;11.24;60.60
69535;BME280;56754;51.568;5.048;2023-02-11T01:29:13;103402.47;;;11.22;61.55
69535;BME280;56754;51.568;5.048;2023-02-11T01:31:38;103403.78;;;11.20;62.34
69535;BME280;56754;51.568;5.048;2023-02-11T01:34:03;103400.28;;;11.19;63.03
69535;BME280;56754;51.568;5.048;2023-02-11T01:36:29;103403.78;;;11.20;62.19
69535;BME280;56754;51.568;5.048;2023-02-11T01:38:54;103402.97;;;11.19;63.13
69535;BME280;56754;51.568;5.048;2023-02-11T01:41:19;103396.25;;;11.16;63.03
69535;BME280;56754;51.568;5.048;2023-02-11T01:43:47;103391.13;;;11.15;61.76
69535;BME280;56754;51.568;5.048;2023-02-11T01:48:50;103376.41;;;11.12;63.22
69535;BME280;56754;51.568;5.048;2023-02-11T01:51:21;103373.97;;;11.11;63.46
69535;BME280;56754;51.568;5.048;2023-02-11T01:53:49;103356.03;;;11.11;63.32
69535;BME280;56754;51.568;5.048;2023-02-11T01:56:15;103363.25;;;11.11;63.68
69535;BME280;56754;51.568;5.048;2023-02-11T01:58:43;103367.53;;;11.12;64.25
69535;BME280;56754;51.568;5.048;2023-02-11T02:01:15;103357.09;;;11.10;63.42
69535;BME280;56754;51.568;5.048;2023-02-11T02:03:43;103373.16;;;11.10;63.25
69535;BME280;56754;51.568;5.048;2023-02-11T02:06:15;103371.28;;;11.11;63.45
69535;BME280;56754;51.568;5.048;2023-02-11T02:08:46;103370.47;;;11.10;63.65
69535;BME280;56754;51.568;5.048;2023-02-11T02:11:15;103375.84;;;11.10;64.01
69535;BME280;56754;51.568;5.048;2023-02-11T02:13:40;103382.25;;;11.09;64.03
69535;BME280;56754;51.568;5.048;2023-02-11T02:16:10;103378.75;;;11.09;63.38
69535;BME280;56754;51.568;5.048;2023-02-11T02:32:30;103356.50;;;11.03;63.62
69535;BME280;56754;51.568;5.048;2023-02-11T02:35:34;103354.84;;;11.02;63.45
69535;BME280;56754;51.568;5.048;2023-02-11T02:38:20;103369.31;;;11.01;63.36
69535;BME280;56754;51.568;5.048;2023-02-11T02:41:01;103370.63;;;10.99;64.31
69535;BME280;56754;51.568;5.048;2023-02-11T02:43:28;103372.47;;;10.98;64.49
69535;BME280;56754;51.568;5.048;2023-02-11T02:45:54;103378.88;;;10.97;64.30
69535;BME280;56754;51.568;5.048;2023-02-11T02:48:29;103372.72;;;10.97;63.29
69535;BME280;56754;51.568;5.048;2023-02-11T02:51:10;103366.00;;;10.94;64.15
69535;BME280;56754;51.568;5.048;2023-02-11T02:53:57;103355.28;;;10.94;64.45
69535;BME280;56754;51.568;5.048;2023-02-11T03:02:07;103350.44;;;10.91;64.16
69535;BME280;56754;51.568;5.048;2023-02-11T03:04:47;103351.50;;;10.90;63.36
69535;BME280;56754;51.568;5.048;2023-02-11T03:10:01;103359.53;;;10.90;64.07
69535;BME280;56754;51.568;5.048;2023-02-11T03:12:30;103365.16;;;10.88;64.37
69535;BME280;56754;51.568;5.048;2023-02-11T03:14:58;103356.56;;;10.86;63.58
69535;BME280;56754;51.568;5.048;2023-02-11T03:17:26;103358.44;;;10.86;64.17
69535;BME280;56754;51.568;5.048;2023-02-11T03:19:52;103352.25;;;10.85;64.73
69535;BME280;56754;51.568;5.048;2023-02-11T03:22:26;103354.13;;;10.85;64.28
69535;BME280;56754;51.568;5.048;2023-02-11T03:24:52;103354.38;;;10.83;64.17
69535;BME280;56754;51.568;5.048;2023-02-11T03:27:45;103357.28;;;10.82;65.15
69535;BME280;56754;51.568;5.048;2023-02-11T03:30:18;103361.59;;;10.83;64.78
69535;BME280;56754;51.568;5.048;2023-02-11T03:32:50;103356.25;;;10.83;65.05
69535;BME280;56754;51.568;5.048;2023-02-11T03:35:23;103351.69;;;10.83;65.38
69535;BME280;56754;51.568;5.048;2023-02-11T03:37:53;103347.16;;;10.84;64.74
69535;BME280;56754;51.568;5.048;2023-02-11T03:40:24;103355.19;;;10.84;65.25
69535;BME280;56754;51.568;5.048;2023-02-11T03:43:09;103352.50;;;10.84;65.11
69535;BME280;56754;51.568;5.048;2023-02-11T03:45:37;103347.97;;;10.84;65.43
69535;BME280;56754;51.568;5.048;2023-02-11T03:48:08;103354.91;;;10.85;65.51
69535;BME280;56754;51.568;5.048;2023-02-11T03:50:36;103349.56;;;10.85;65.35
69535;BME280;56754;51.568;5.048;2023-02-11T03:53:03;103355.75;;;10.86;64.79
69535;BME280;56754;51.568;5.048;2023-02-11T03:55:29;103350.41;;;10.86;64.18
69535;BME280;56754;51.568;5.048;2023-02-11T03:57:57;103351.44;;;10.85;64.92
69535;BME280;56754;51.568;5.048;2023-02-11T04:00:33;103352.50;;;10.84;64.36
69535;BME280;56754;51.568;5.048;2023-02-11T04:02:59;103353.81;;;10.81;64.83
69535;BME280;56754;51.568;5.048;2023-02-11T04:05:25;103346.59;;;10.82;65.21
69535;BME280;56754;51.568;5.048;2023-02-11T04:07:50;103345.78;;;10.81;65.39
69535;BME280;56754;51.568;5.048;2023-02-11T04:10:15;103354.59;;;10.82;65.12
69535;BME280;56754;51.568;5.048;2023-02-11T04:12:41;103353.00;;;10.81;64.89
69535;BME280;56754;51.568;5.048;2023-02-11T04:15:07;103351.13;;;10.81;65.67
69535;BME280;56754;51.568;5.048;2023-02-11T04:17:32;103343.09;;;10.81;65.14
69535;BME280;56754;51.568;5.048;2023-02-11T04:19:57;103350.31;;;10.81;64.24
69535;BME280;56754;51.568;5.048;2023-02-11T04:22:22;103339.31;;;10.77;65.02
69535;BME280;56754;51.568;5.048;2023-02-11T04:24:48;103330.50;;;10.77;65.34
69535;BME280;56754;51.568;5.048;2023-02-11T04:27:13;103315.47;;;10.76;65.13
69535;BME280;56754;51.568;5.048;2023-02-11T04:29:38;103313.88;;;10.75;63.86
69535;BME280;56754;51.568;5.048;2023-02-11T04:32:04;103322.13;;;10.73;64.94
69535;BME280;56754;51.568;5.048;2023-02-11T04:34:29;103322.41;;;10.72;65.37
69535;BME280;56754;51.568;5.048;2023-02-11T04:36:54;103315.41;;;10.70;66.05
69535;BME280;56754;51.568;5.048;2023-02-11T04:39:20;103321.59;;;10.71;66.16
69535;BME280;56754;51.568;5.048;2023-02-11T04:41:45;103313.31;;;10.73;66.14
69535;BME280;56754;51.568;5.048;2023-02-11T04:44:10;103317.84;;;10.72;66.38
69535;BME280;56754;51.568;5.048;2023-02-11T04:46:35;103317.59;;;10.74;66.18
69535;BME280;56754;51.568;5.048;2023-02-11T04:49:01;103325.63;;;10.74;65.35
69535;BME280;56754;51.568;5.048;2023-02-11T04:51:26;103330.97;;;10.74;66.20
69535;BME280;56754;51.568;5.048;2023-02-11T04:53:51;103330.97;;;10.74;65.29
69535;BME280;56754;51.568;5.048;2023-02-11T04:56:17;103337.63;;;10.71;64.64
69535;BME280;56754;51.568;5.048;2023-02-11T04:58:42;103342.16;;;10.70;65.96
69535;BME280;56754;51.568;5.048;2023-02-11T05:01:09;103342.16;;;10.70;66.41
69535;BME280;56754;51.568;5.048;2023-02-11T05:03:36;103342.16;;;10.70;65.75
69535;BME280;56754;51.568;5.048;2023-02-11T05:06:02;103336.28;;;10.68;66.16
69535;BME280;56754;51.568;5.048;2023-02-11T05:08:27;103338.13;;;10.68;65.38
69535;BME280;56754;51.568;5.048;2023-02-11T05:10:52;103342.66;;;10.67;65.87
69535;BME280;56754;51.568;5.048;2023-02-11T05:13:18;103335.47;;;10.68;66.27
69535;BME280;56754;51.568;5.048;2023-02-11T05:15:43;103336.50;;;10.67;65.67
69535;BME280;56754;51.568;5.048;2023-02-11T05:18:08;103341.03;;;10.66;65.79
69535;BME280;56754;51.568;5.048;2023-02-11T05:20:37;103349.06;;;10.66;65.66
69535;BME280;56754;51.568;5.048;2023-02-11T05:23:02;103343.72;;;10.66;66.28
69535;BME280;56754;51.568;5.048;2023-02-11T05:25:27;103351.75;;;10.66;66.43
69535;BME280;56754;51.568;5.048;2023-02-11T05:27:52;103353.63;;;10.66;65.92
69535;BME280;56754;51.568;5.048;2023-02-11T05:30:18;103343.72;;;10.66;66.01
69535;BME280;56754;51.568;5.048;2023-02-11T05:32:43;103346.41;;;10.66;65.57
69535;BME280;56754;51.568;5.048;2023-02-11T05:35:08;103342.13;;;10.65;65.42
69535;BME280;56754;51.568;5.048;2023-02-11T05:37:34;103339.66;;;10.64;65.94
69535;BME280;56754;51.568;5.048;2023-02-11T05:39:59;103330.84;;;10.63;65.77
69535;BME280;56754;51.568;5.048;2023-02-11T05:42:24;103337.25;;;10.62;65.47
69535;BME280;56754;51.568;5.048;2023-02-11T05:44:50;103330.28;;;10.61;64.90
69535;BME280;56754;51.568;5.048;2023-02-11T05:47:15;103316.38;;;10.59;65.04
69535;BME280;56754;51.568;5.048;2023-02-11T05:49:40;103318.19;;;10.59;64.73
69535;BME280;56754;51.568;5.048;2023-02-11T05:52:05;103312.06;;;10.58;64.62
69535;BME280;56754;51.568;5.048;2023-02-11T05:54:31;103324.88;;;10.56;65.83
69535;BME280;56754;51.568;5.048;2023-02-11T05:56:56;103322.22;;;10.56;65.60
69535;BME280;56754;51.568;5.048;2023-02-11T05:59:21;103325.69;;;10.57;66.13
69535;BME280;56754;51.568;5.048;2023-02-11T06:01:47;103321.38;;;10.56;65.36
69535;BME280;56754;51.568;5.048;2023-02-11T06:04:12;103330.47;;;10.55;65.62
69535;BME280;56754;51.568;5.048;2023-02-11T06:06:37;103325.91;;;10.55;65.30
69535;BME280;56754;51.568;5.048;2023-02-11T06:09:02;103335.25;;;10.53;66.22
69535;BME280;56754;51.568;5.048;2023-02-11T06:11:28;103338.19;;;10.51;64.83
69535;BME280;56754;51.568;5.048;2023-02-11T06:13:53;103327.72;;;10.50;66.35
69535;BME280;56754;51.568;5.048;2023-02-11T06:16:18;103333.63;;;10.52;66.10
69535;BME280;56754;51.568;5.048;2023-02-11T06:18:44;103343.75;;;10.50;65.85
69535;BME280;56754;51.568;5.048;2023-02-11T06:21:10;103346.19;;;10.51;66.44
69535;BME280;56754;51.568;5.048;2023-02-11T06:23:35;103333.63;;;10.52;66.12
69535;BME280;56754;51.568;5.048;2023-02-11T06:26:06;103337.38;;;10.51;65.78
69535;BME280;56754;51.568;5.048;2023-02-11T06:28:32;103342.97;;;10.49;65.77
69535;BME280;56754;51.568;5.048;2023-02-11T06:31:02;103344.03;;;10.48;66.46
69535;BME280;56754;51.568;5.048;2023-02-11T06:33:28;103343.22;;;10.47;66.90
69535;BME280;56754;51.568;5.048;2023-02-11T06:35:53;103350.44;;;10.47;66.84
69535;BME280;56754;51.568;5.048;2023-02-11T06:38:18;103349.59;;;10.46;65.54
69535;BME280;56754;51.568;5.048;2023-02-11T06:40:48;103343.22;;;10.47;66.72
69535;BME280;56754;51.568;5.048;2023-02-11T06:43:13;103350.44;;;10.47;67.02
69535;BME280;56754;51.568;5.048;2023-02-11T06:45:38;103350.97;;;10.49;66.64
69535;BME280;56754;51.568;5.048;2023-02-11T06:48:04;103343.22;;;10.47;66.64
69535;BME280;56754;51.568;5.048;2023-02-11T06:50:29;103345.09;;;10.47;66.34
69535;BME280;56754;51.568;5.048;2023-02-11T06:52:54;103339.75;;;10.47;66.15
69535;BME280;56754;51.568;5.048;2023-02-11T06:55:20;103345.88;;;10.47;66.23
69535;BME280;56754;51.568;5.048;2023-02-11T06:57:45;103346.69;;;10.48;66.95
69535;BME280;56754;51.568;5.048;2023-02-11T07:00:11;103349.38;;;10.48;66.98
69535;BME280;56754;51.568;5.048;2023-02-11T07:02:37;103352.63;;;10.50;67.02
69535;BME280;56754;51.568;5.048;2023-02-11T07:05:04;103357.13;;;10.50;67.15
69535;BME280;56754;51.568;5.048;2023-02-11T07:07:30;103352.63;;;10.50;66.70
69535;BME280;56754;51.568;5.048;2023-02-11T07:09:55;103359.56;;;10.51;67.09
69535;BME280;56754;51.568;5.048;2023-02-11T07:12:20;103365.97;;;10.50;66.74
69535;BME280;56754;51.568;5.048;2023-02-11T07:14:45;103366.78;;;10.51;66.70
69535;BME280;56754;51.568;5.048;2023-02-11T07:17:11;103368.66;;;10.50;66.84
69535;BME280;56754;51.568;5.048;2023-02-11T07:19:36;103371.34;;;10.50;66.83
69535;BME280;56754;51.568;5.048;2023-02-11T07:22:01;103378.88;;;10.53;66.45
69535;BME280;56754;51.568;5.048;2023-02-11T07:24:26;103376.41;;;10.52;66.91
69535;BME280;56754;51.568;5.048;2023-02-11T07:26:52;103379.09;;;10.52;67.16
69535;BME280;56754;51.568;5.048;2023-02-11T07:29:18;103379.09;;;10.52;66.32
69535;BME280;56754;51.568;5.048;2023-02-11T07:31:43;103376.41;;;10.52;66.98
69535;BME280;56754;51.568;5.048;2023-02-11T07:34:09;103392.22;;;10.53;67.20
69535;BME280;56754;51.568;5.048;2023-02-11T07:36:35;103394.66;;;10.55;66.90
69535;BME280;56754;51.568;5.048;2023-02-11T07:39:01;103395.72;;;10.54;67.00
69535;BME280;56754;51.568;5.048;2023-02-11T07:41:26;103396.50;;;10.54;66.86
69535;BME280;56754;51.568;5.048;2023-02-11T07:43:52;103388.22;;;10.56;66.59
69535;BME280;56754;51.568;5.048;2023-02-11T07:46:21;103394.41;;;10.56;66.72
69535;BME280;56754;51.568;5.048;2023-02-11T07:48:46;103401.38;;;10.57;66.80
69535;BME280;56754;51.568;5.048;2023-02-11T07:51:20;103402.75;;;10.60;67.09
69535;BME280;56754;51.568;5.048;2023-02-11T07:53:46;103409.41;;;10.57;67.02
69535;BME280;56754;51.568;5.048;2023-02-11T07:56:13;103405.41;;;10.60;67.01
69535;BME280;56754;51.568;5.048;2023-02-11T07:58:39;103401.94;;;10.59;67.50
69535;BME280;56754;51.568;5.048;2023-02-11T08:01:12;103402.50;;;10.61;67.45
69535;BME280;56754;51.568;5.048;2023-02-11T08:03:38;103405.72;;;10.63;67.07
69535;BME280;56754;51.568;5.048;2023-02-11T08:06:06;103400.16;;;10.65;66.77
69535;BME280;56754;51.568;5.048;2023-02-11T08:08:31;103408.97;;;10.65;66.31
69535;BME280;56754;51.568;5.048;2023-02-11T08:10:57;103412.19;;;10.67;66.71
69535;BME280;56754;51.568;5.048;2023-02-11T08:13:22;103414.88;;;10.67;66.31
69535;BME280;56754;51.568;5.048;2023-02-11T08:15:48;103417.56;;;10.67;66.50
69535;BME280;56754;51.568;5.048;2023-02-11T08:18:13;103428.81;;;10.69;65.95
69535;BME280;56754;51.568;5.048;2023-02-11T08:20:38;103423.47;;;10.69;66.08
69535;BME280;56754;51.568;5.048;2023-02-11T08:23:07;103421.88;;;10.68;66.03
69535;BME280;56754;51.568;5.048;2023-02-11T08:25:32;103424.53;;;10.68;66.08
69535;BME280;56754;51.568;5.048;2023-02-11T08:27:57;103420.78;;;10.69;66.19
69535;BME280;56754;51.568;5.048;2023-02-11T08:30:23;103438.47;;;10.70;66.08
69535;BME280;56754;51.568;5.048;2023-02-11T08:32:48;103433.94;;;10.71;66.16
69535;BME280;56754;51.568;5.048;2023-02-11T08:35:13;103424.03;;;10.72;66.26
69535;BME280;56754;51.568;5.048;2023-02-11T08:37:39;103429.94;;;10.74;65.58
69535;BME280;56754;51.568;5.048;2023-02-11T08:40:04;103431.56;;;10.75;65.59
69535;BME280;56754;51.568;5.048;2023-02-11T08:42:30;103428.91;;;10.75;65.43
69535;BME280;56754;51.568;5.048;2023-02-11T08:44:55;103428.09;;;10.74;65.51
69535;BME280;56754;51.568;5.048;2023-02-11T08:47:20;103435.84;;;10.76;65.58
69535;BME280;56754;51.568;5.048;2023-02-11T08:49:46;103435.84;;;10.76;65.55
69535;BME280;56754;51.568;5.048;2023-02-11T08:52:11;103437.50;;;10.77;65.61
69535;BME280;56754;51.568;5.048;2023-02-11T08:54:36;103428.41;;;10.78;65.76
69535;BME280;56754;51.568;5.048;2023-02-11T08:57:02;103444.19;;;10.79;65.66
69535;BME280;56754;51.568;5.048;2023-02-11T08:59:28;103437.00;;;10.80;65.74
69535;BME280;56754;51.568;5.048;2023-02-11T09:01:53;103449.31;;;10.81;65.31
69535;BME280;56754;51.568;5.048;2023-02-11T09:04:19;103445.84;;;10.80;65.38
69535;BME280;56754;51.568;5.048;2023-02-11T09:06:44;103446.06;;;10.79;65.21
69535;BME280;56754;51.568;5.048;2023-02-11T09:09:14;103438.03;;;10.79;65.35
69535;BME280;56754;51.568;5.048;2023-02-11T09:11:41;103450.88;;;10.77;65.32
69535;BME280;56754;51.568;5.048;2023-02-11T09:14:07;103450.63;;;10.78;65.63
69535;BME280;56754;51.568;5.048;2023-02-11T09:16:37;103441.53;;;10.79;65.56
69535;BME280;56754;51.568;5.048;2023-02-11T09:19:03;103447.72;;;10.80;65.58
69535;BME280;56754;51.568;5.048;2023-02-11T09:21:29;103448.50;;;10.80;65.33
69535;BME280;56754;51.568;5.048;2023-02-11T09:23:55;103446.88;;;10.79;65.37
69535;BME280;56754;51.568;5.048;2023-02-11T09:26:24;103447.72;;;10.80;65.21
69535;BME280;56754;51.568;5.048;2023-02-11T09:28:50;103451.41;;;10.79;65.62
69535;BME280;56754;51.568;5.048;2023-02-11T09:31:19;103455.72;;;10.80;65.38
69535;BME280;56754;51.568;5.048;2023-02-11T09:33:46;103460.81;;;10.81;65.55
69535;BME280;56754;51.568;5.048;2023-02-11T09:36:15;103460.59;;;10.83;65.54
69535;BME280;56754;51.568;5.048;2023-02-11T09:38:41;103461.41;;;10.83;65.45
69535;BME280;56754;51.568;5.048;2023-02-11T09:43:52;103455.78;;;10.85;65.54
69535;BME280;56754;51.568;5.048;2023-02-11T09:46:18;103456.59;;;10.85;65.56
69535;BME280;56754;51.568;5.048;2023-02-11T09:48:47;103462.78;;;10.86;65.68
69535;BME280;56754;51.568;5.048;2023-02-11T09:51:37;103460.41;;;10.89;65.54
69535;BME280;56754;51.568;5.048;2023-02-11T09:54:11;103465.50;;;10.91;65.51
69535;BME280;56754;51.568;5.048;2023-02-11T09:56:37;103458.84;;;10.93;65.45
69535;BME280;56754;51.568;5.048;2023-02-11T09:59:03;103473.88;;;10.95;65.37
69535;BME280;56754;51.568;5.048;2023-02-11T10:02:02;103483.25;;;10.97;65.57
69535;BME280;56754;51.568;5.048;2023-02-11T10:12:20;103482.28;;;11.03;65.52
69535;BME280;56754;51.568;5.048;2023-02-11T10:23:39;103484.19;;;11.08;65.30
69535;BME280;56754;51.568;5.048;2023-02-11T10:26:11;103488.25;;;11.10;65.33
69535;BME280;56754;51.568;5.048;2023-02-11T10:28:38;103491.50;;;11.12;65.12
69535;BME280;56754;51.568;5.048;2023-02-11T10:31:25;103501.94;;;11.14;65.13
69535;BME280;56754;51.568;5.048;2023-02-11T10:34:03;103504.41;;;11.15;65.12
69535;BME280;56754;51.568;5.048;2023-02-11T10:36:32;103511.34;;;11.16;65.17
69535;BME280;56754;51.568;5.048;2023-02-11T10:38:59;103511.94;;;11.19;65.01
69535;BME280;56754;51.568;5.048;2023-02-11T10:41:33;103510.63;;;11.21;64.97
69535;BME280;56754;51.568;5.048;2023-02-11T10:44:00;103529.38;;;11.21;64.92
69535;BME280;56754;51.568;5.048;2023-02-11T10:46:30;103532.03;;;11.21;64.87
69535;BME280;56754;51.568;5.048;2023-02-11T10:48:56;103519.47;;;11.22;65.05
69535;BME280;56754;51.568;5.048;2023-02-11T10:51:29;103525.84;;;11.21;64.84
69535;BME280;56754;51.568;5.048;2023-02-11T10:56:32;103529.09;;;11.23;64.87
69535;BME280;56754;51.568;5.048;2023-02-11T10:59:14;103521.06;;;11.23;65.01
69535;BME280;56754;51.568;5.048;2023-02-11T11:02:28;103528.03;;;11.24;65.08
69535;BME280;56754;51.568;5.048;2023-02-11T11:04:55;103535.03;;;11.25;64.90
69535;BME280;56754;51.568;5.048;2023-02-11T11:07:24;103531.28;;;11.26;64.82
69535;BME280;56754;51.568;5.048;2023-02-11T11:09:59;103537.22;;;11.28;64.79
69535;BME280;56754;51.568;5.048;2023-02-11T11:14:54;103548.50;;;11.30;64.77
69535;BME280;56754;51.568;5.048;2023-02-11T11:17:20;103543.13;;;11.30;64.51
69535;BME280;56754;51.568;5.048;2023-02-11T11:19:46;103540.19;;;11.31;64.61
69535;BME280;56754;51.568;5.048;2023-02-11T11:22:20;103542.06;;;11.31;64.73
69535;BME280;56754;51.568;5.048;2023-02-11T11:24:48;103543.44;;;11.33;64.60
69535;BME280;56754;51.568;5.048;2023-02-11T11:27:20;103544.81;;;11.36;64.53
69535;BME280;56754;51.568;5.048;2023-02-11T11:29:52;103537.59;;;11.36;64.53
69535;BME280;56754;51.568;5.048;2023-02-11T11:35:00;103544.06;;;11.41;64.46
69535;BME280;56754;51.568;5.048;2023-02-11T11:37:28;103538.72;;;11.41;64.49
69535;BME280;56754;51.568;5.048;2023-02-11T11:42:31;103551.03;;;11.42;64.52
69535;BME280;56754;51.568;5.048;2023-02-11T11:45:03;103551.03;;;11.42;64.44
69535;BME280;56754;51.568;5.048;2023-02-11T11:53:03;103547.31;;;11.43;64.42
69535;BME280;56754;51.568;5.048;2023-02-11T11:58:21;103558.59;;;11.45;64.14
69535;BME280;56754;51.568;5.048;2023-02-11T12:04:15;103551.38;;;11.45;64.47
69535;BME280;56754;51.568;5.048;2023-02-11T12:15:56;103548.72;;;11.50;64.25
69535;BME280;56754;51.568;5.048;2023-02-11T12:18:33;103540.97;;;11.49;64.37
69535;BME280;56754;51.568;5.048;2023-02-11T12:34:24;103539.47;;;11.58;63.82
69535;BME280;56754;51.568;5.048;2023-02-11T12:40:22;103532.81;;;11.60;64.12
69535;BME280;56754;51.568;5.048;2023-02-11T12:46:26;103517.22;;;11.57;64.03
69535;BME280;56754;51.568;5.048;2023-02-11T12:59:13;103508.13;;;11.58;64.19
69535;BME280;56754;51.568;5.048;2023-02-11T13:01:42;103510.00;;;11.58;64.27
69535;BME280;56754;51.568;5.048;2023-02-11T13:04:20;103506.03;;;11.60;64.20
69535;BME280;56754;51.568;5.048;2023-02-11T13:06:58;103509.25;;;11.63;64.50
69535;BME280;56754;51.568;5.048;2023-02-11T13:09:31;103510.06;;;11.63;64.25
69535;BME280;56754;51.568;5.048;2023-02-11T13:12:01;103511.94;;;11.63;64.44
69535;BME280;56754;51.568;5.048;2023-02-11T13:14:32;103503.63;;;11.64;64.27
69535;BME280;56754;51.568;5.048;2023-02-11T13:16:58;103508.75;;;11.66;64.38
69535;BME280;56754;51.568;5.048;2023-02-11T13:19:37;103502.34;;;11.67;64.27
69535;BME280;56754;51.568;5.048;2023-02-11T13:22:16;103497.53;;;11.69;64.25
69535;BME280;56754;51.568;5.048;2023-02-11T13:24:46;103499.16;;;11.70;64.47
69535;BME280;56754;51.568;5.048;2023-02-11T13:35:38;103493.28;;;11.73;64.37
69535;BME280;56754;51.568;5.048;2023-02-11T13:40:41;103495.72;;;11.74;64.21
69535;BME280;56754;51.568;5.048;2023-02-11T13:43:22;103491.19;;;11.75;64.21
69535;BME280;56754;51.568;5.048;2023-02-11T13:45:49;103491.97;;;11.75;64.51
69535;BME280;56754;51.568;5.048;2023-02-11T13:48:21;103497.34;;;11.75;64.37
69535;BME280;56754;51.568;5.048;2023-02-11T13:50:50;103489.03;;;11.77;64.32
69535;BME280;56754;51.568;5.048;2023-02-11T13:53:17;103483.69;;;11.77;64.47
69535;BME280;56754;51.568;5.048;2023-02-11T13:55:45;103486.34;;;11.77;64.34
69535;BME280;56754;51.568;5.048;2023-02-11T14:05:35;103489.59;;;11.79;64.58
69535;BME280;56754;51.568;5.048;2023-02-11T14:16:07;103497.63;;;11.79;64.39
69535;BME280;56754;51.568;5.048;2023-02-11T14:21:21;103502.75;;;11.80;64.54
69535;BME280;56754;51.568;5.048;2023-02-11T14:23:48;103496.56;;;11.80;64.42
69535;BME280;56754;51.568;5.048;2023-02-11T14:31:37;103500.88;;;11.81;64.59
69535;BME280;56754;51.568;5.048;2023-02-11T14:39:48;103503.31;;;11.82;64.58
69535;BME280;56754;51.568;5.048;2023-02-11T14:42:19;103487.22;;;11.82;64.59
69535;BME280;56754;51.568;5.048;2023-02-11T14:44:48;103497.94;;;11.82;64.36
69535;BME280;56754;51.568;5.048;2023-02-11T14:47:18;103492.59;;;11.82;64.50
69535;BME280;56754;51.568;5.048;2023-02-11T14:49:45;103492.59;;;11.82;64.39
69535;BME280;56754;51.568;5.048;2023-02-11T14:52:31;103504.09;;;11.83;64.31
69535;BME280;56754;51.568;5.048;2023-02-11T14:55:26;103504.94;;;11.83;64.51
69535;BME280;56754;51.568;5.048;2023-02-11T14:58:06;103497.94;;;11.82;64.50
69535;BME280;56754;51.568;5.048;2023-02-11T15:00:32;103496.06;;;11.83;64.50
69535;BME280;56754;51.568;5.048;2023-02-11T15:02:57;103502.03;;;11.85;64.48
69535;BME280;56754;51.568;5.048;2023-02-11T15:05:27;103498.50;;;11.84;64.20
69535;BME280;56754;51.568;5.048;2023-02-11T15:07:55;103502.03;;;11.85;64.32
69535;BME280;56754;51.568;5.048;2023-02-11T15:10:34;103505.50;;;11.86;64.20
69535;BME280;56754;51.568;5.048;2023-02-11T15:13:02;103514.38;;;11.86;64.30
69535;BME280;56754;51.568;5.048;2023-02-11T15:15:29;103518.66;;;11.87;64.36
69535;BME280;56754;51.568;5.048;2023-02-11T15:17:58;103516.00;;;11.87;64.03
69535;BME280;56754;51.568;5.048;2023-02-11T15:20:27;103516.00;;;11.87;64.19
69535;BME280;56754;51.568;5.048;2023-02-11T15:22:58;103524.84;;;11.88;64.17